sensor_id;sensor_type;location;lat;lon;timestamp;pressure;altitude;pressure_sealevel;temperature;humidity
34328;BME280;20588;48.840;10.064;2023-02-22T00:00:50;96425.66;;;0.93;nan
34328;BME280;20588;48.840;10.064;2023-02-22T00:03:25;96435.28;;;0.90;nan
34328;BME280;20588;48.840;10.064;2023-02-22T00:05:59;96434.50;;;0.89;nan
34328;BME280;20588;48.840;10.064;2023-02-22T00:08:29;96434.34;;;0.91;nan
34328;BME280;20588;48.840;10.064;2023-02-22T00:11:07;96421.03;;;0.89;nan
34328;BME280;20588;48.840;10.064;2023-02-22T00:13:34;96428.50;;;0.90;nan
34328;BME280;20588;48.840;10.064;2023-02-22T00:16:00;96429.75;;;0.86;nan
34328;BME280;20588;48.840;10.064;2023-02-22T00:18:28;96424.19;;;0.83;nan
34328;BME280;20588;48.840;10.064;2023-02-22T00:20:55;96424.50;;;0.80;nan
34328;BME280;20588;48.840;10.064;2023-02-22T00:23:25;96419.59;;;0.78;nan
34328;BME280;20588;48.840;10.064;2023-02-22T00:25:53;96423.84;;;0.78;nan
34328;BME280;20588;48.840;10.064;2023-02-22T00:28:19;96413.72;;;0.78;nan
34328;BME280;20588;48.840;10.064;2023-02-22T00:30:46;96418.31;;;0.74;nan
34328;BME280;20588;48.840;10.064;2023-02-22T00:33:14;96408.19;;;0.74;nan
34328;BME280;20588;48.840;10.064;2023-02-22T00:35:41;96417.66;;;0.72;nan
34328;BME280;20588;48.840;10.064;2023-02-22T00:38:12;96416.06;;;0.71;nan
34328;BME280;20588;48.840;10.064;2023-02-22T00:40:38;96412.91;;;0.69;nan
34328;BME280;20588;48.840;10.064;2023-02-22T00:43:05;96404.66;;;0.67;nan
34328;BME280;20588;48.840;10.064;2023-02-22T00:45:33;96403.56;;;0.70;nan
34328;BME280;20588;48.840;10.064;2023-02-22T00:48:00;96406.38;;;0.67;nan
34328;BME280;20588;48.840;10.064;2023-02-22T00:50:28;96404.00;;;0.65;nan
34328;BME280;20588;48.840;10.064;2023-02-22T00:52:56;96407.63;;;0.63;nan
34328;BME280;20588;48.840;10.064;2023-02-22T00:55:25;96399.41;;;0.61;nan
34328;BME280;20588;48.840;10.064;2023-02-22T00:57:52;96397.03;;;0.59;nan
34328;BME280;20588;48.840;10.064;2023-02-22T01:02:48;96399.56;;;0.59;nan
34328;BME280;20588;48.840;10.064;2023-02-22T01:05:19;96395.75;;;0.55;nan
34328;BME280;20588;48.840;10.064;2023-02-22T01:07:46;96395.13;;;0.61;nan
34328;BME280;20588;48.840;10.064;2023-02-22T01:10:13;96386.59;;;0.62;nan
34328;BME280;20588;48.840;10.064;2023-02-22T01:12:40;96382.28;;;0.55;nan
34328;BME280;20588;48.840;10.064;2023-02-22T01:15:07;96389.09;;;0.54;nan
34328;BME280;20588;48.840;10.064;2023-02-22T01:17:38;96391.47;;;0.56;nan
34328;BME280;20588;48.840;10.064;2023-02-22T01:20:07;96388.75;;;0.49;nan
34328;BME280;20588;48.840;10.064;2023-02-22T01:22:40;96381.63;;;0.45;nan
34328;BME280;20588;48.840;10.064;2023-02-22T01:25:10;96379.53;;;0.40;nan
34328;BME280;20588;48.840;10.064;2023-02-22T01:27:37;96384.44;;;0.42;nan
34328;BME280;20588;48.840;10.064;2023-02-22T01:30:05;96377.66;;;0.42;nan
34328;BME280;20588;48.840;10.064;2023-02-22T01:32:34;96375.44;;;0.39;nan
34328;BME280;20588;48.840;10.064;2023-02-22T01:35:01;96379.19;;;0.35;nan
34328;BME280;20588;48.840;10.064;2023-02-22T01:37:30;96372.41;;;0.36;nan
34328;BME280;20588;48.840;10.064;2023-02-22T01:39:57;96378.28;;;0.36;nan
34328;BME280;20588;48.840;10.064;2023-02-22T01:42:23;96382.38;;;0.37;nan
34328;BME280;20588;48.840;10.064;2023-02-22T01:48:00;96378.56;;;0.33;nan
34328;BME280;20588;48.840;10.064;2023-02-22T01:50:28;96373.00;;;0.30;nan
34328;BME280;20588;48.840;10.064;2023-02-22T01:52:56;96373.16;;;0.28;nan
34328;BME280;20588;48.840;10.064;2023-02-22T01:55:23;96378.56;;;0.33;nan
34328;BME280;20588;48.840;10.064;2023-02-22T01:57:49;96373.97;;;0.29;nan
34328;BME280;20588;48.840;10.064;2023-02-22T02:00:18;96373.47;;;0.25;nan
34328;BME280;20588;48.840;10.064;2023-02-22T02:02:49;96373.59;;;0.24;nan
34328;BME280;20588;48.840;10.064;2023-02-22T02:05:18;96364.16;;;0.26;nan
34328;BME280;20588;48.840;10.064;2023-02-22T02:07:44;96367.59;;;0.25;nan
34328;BME280;20588;48.840;10.064;2023-02-22T02:10:13;96357.63;;;0.23;nan
34328;BME280;20588;48.840;10.064;2023-02-22T02:12:43;96365.88;;;0.25;nan
34328;BME280;20588;48.840;10.064;2023-02-22T02:15:26;96358.63;;;0.30;nan
34328;BME280;20588;48.840;10.064;2023-02-22T02:18:03;96354.50;;;0.29;nan
34328;BME280;20588;48.840;10.064;2023-02-22T02:26:19;96353.06;;;0.27;nan
34328;BME280;20588;48.840;10.064;2023-02-22T02:29:10;96349.13;;;0.32;nan
34328;BME280;20588;48.840;10.064;2023-02-22T02:37:32;96334.75;;;0.33;nan
34328;BME280;20588;48.840;10.064;2023-02-22T02:45:47;96329.91;;;0.39;nan
34328;BME280;20588;48.840;10.064;2023-02-22T02:48:15;96329.09;;;0.39;nan
34328;BME280;20588;48.840;10.064;2023-02-22T02:50:47;96319.75;;;0.31;nan
34328;BME280;20588;48.840;10.064;2023-02-22T02:53:18;96317.50;;;0.28;nan
34328;BME280;20588;48.840;10.064;2023-02-22T02:55:45;96314.47;;;0.25;nan
34328;BME280;20588;48.840;10.064;2023-02-22T02:58:17;96311.94;;;0.25;nan
34328;BME280;20588;48.840;10.064;2023-02-22T03:00:44;96303.75;;;0.23;nan
34328;BME280;20588;48.840;10.064;2023-02-22T03:14:28;96290.09;;;0.16;nan
34328;BME280;20588;48.840;10.064;2023-02-22T03:17:09;96286.00;;;0.15;nan
34328;BME280;20588;48.840;10.064;2023-02-22T03:19:49;96285.53;;;0.19;nan
34328;BME280;20588;48.840;10.064;2023-02-22T03:22:21;96288.25;;;0.26;nan
34328;BME280;20588;48.840;10.064;2023-02-22T03:25:04;96288.13;;;0.27;nan
34328;BME280;20588;48.840;10.064;2023-02-22T03:27:54;96284.44;;;0.22;nan
34328;BME280;20588;48.840;10.064;2023-02-22T03:30:58;96280.47;;;0.19;nan
34328;BME280;20588;48.840;10.064;2023-02-22T03:33:40;96278.44;;;0.23;nan
34328;BME280;20588;48.840;10.064;2023-02-22T03:36:28;96270.81;;;0.15;nan
34328;BME280;20588;48.840;10.064;2023-02-22T03:38:57;96270.66;;;0.16;nan
34328;BME280;20588;48.840;10.064;2023-02-22T03:41:26;96268.13;;;0.16;nan
34328;BME280;20588;48.840;10.064;2023-02-22T03:43:59;96266.25;;;0.18;nan
34328;BME280;20588;48.840;10.064;2023-02-22T03:46:27;96264.66;;;0.17;nan
34328;BME280;20588;48.840;10.064;2023-02-22T03:49:11;96260.91;;;0.21;nan
34328;BME280;20588;48.840;10.064;2023-02-22T03:51:39;96258.38;;;0.21;nan
34328;BME280;20588;48.840;10.064;2023-02-22T03:54:06;96259.16;;;0.22;nan
34328;BME280;20588;48.840;10.064;2023-02-22T03:56:36;96264.84;;;0.24;nan
34328;BME280;20588;48.840;10.064;2023-02-22T03:59:08;96264.84;;;0.24;nan
34328;BME280;20588;48.840;10.064;2023-02-22T04:01:36;96262.81;;;0.27;nan
34328;BME280;20588;48.840;10.064;2023-02-22T04:04:02;96264.09;;;0.31;nan
34328;BME280;20588;48.840;10.064;2023-02-22T04:06:34;96263.94;;;0.33;nan
34328;BME280;20588;48.840;10.064;2023-02-22T04:09:00;96273.28;;;0.40;nan
34328;BME280;20588;48.840;10.064;2023-02-22T04:11:26;96256.22;;;0.42;nan
34328;BME280;20588;48.840;10.064;2023-02-22T04:13:53;96268.56;;;0.45;nan
34328;BME280;20588;48.840;10.064;2023-02-22T04:16:19;96262.56;;;0.46;nan
34328;BME280;20588;48.840;10.064;2023-02-22T04:18:45;96257.50;;;0.46;nan
34328;BME280;20588;48.840;10.064;2023-02-22T04:21:12;96264.81;;;0.57;nan
34328;BME280;20588;48.840;10.064;2023-02-22T04:23:39;96260.34;;;0.59;nan
34328;BME280;20588;48.840;10.064;2023-02-22T04:26:05;96255.31;;;0.67;nan
34328;BME280;20588;48.840;10.064;2023-02-22T04:28:31;96263.41;;;0.71;nan
34328;BME280;20588;48.840;10.064;2023-02-22T04:30:57;96264.66;;;0.75;nan
34328;BME280;20588;48.840;10.064;2023-02-22T04:33:23;96265.19;;;0.86;nan
34328;BME280;20588;48.840;10.064;2023-02-22T04:35:49;96268.63;;;0.85;nan
34328;BME280;20588;48.840;10.064;2023-02-22T04:38:16;96270.84;;;0.88;nan
34328;BME280;20588;48.840;10.064;2023-02-22T04:40:42;96265.47;;;0.91;nan
34328;BME280;20588;48.840;10.064;2023-02-22T04:43:08;96264.41;;;0.94;nan
34328;BME280;20588;48.840;10.064;2023-02-22T04:45:34;96255.03;;;0.94;nan
34328;BME280;20588;48.840;10.064;2023-02-22T04:48:00;96250.94;;;0.93;nan
34328;BME280;20588;48.840;10.064;2023-02-22T04:50:27;96256.97;;;0.92;nan
34328;BME280;20588;48.840;10.064;2023-02-22T04:52:53;96244.59;;;0.89;nan
34328;BME280;20588;48.840;10.064;2023-02-22T04:55:19;96250.44;;;0.90;nan
34328;BME280;20588;48.840;10.064;2023-02-22T04:57:45;96246.03;;;1.00;nan
34328;BME280;20588;48.840;10.064;2023-02-22T05:00:17;96239.84;;;1.02;nan
34328;BME280;20588;48.840;10.064;2023-02-22T05:02:44;96246.66;;;1.02;nan
34328;BME280;20588;48.840;10.064;2023-02-22T05:05:10;96241.59;;;1.02;nan
34328;BME280;20588;48.840;10.064;2023-02-22T05:07:38;96237.00;;;1.05;nan
34328;BME280;20588;48.840;10.064;2023-02-22T05:10:04;96249.19;;;1.10;nan
34328;BME280;20588;48.840;10.064;2023-02-22T05:12:30;96236.38;;;1.11;nan
34328;BME280;20588;48.840;10.064;2023-02-22T05:14:56;96239.06;;;1.18;nan
34328;BME280;20588;48.840;10.064;2023-02-22T05:17:22;96235.09;;;1.15;nan
34328;BME280;20588;48.840;10.064;2023-02-22T05:19:48;96232.41;;;1.25;nan
34328;BME280;20588;48.840;10.064;2023-02-22T05:22:14;96227.19;;;1.26;nan
34328;BME280;20588;48.840;10.064;2023-02-22T05:24:40;96227.34;;;1.33;nan
34328;BME280;20588;48.840;10.064;2023-02-22T05:27:06;96230.31;;;1.44;nan
34328;BME280;20588;48.840;10.064;2023-02-22T05:29:32;96222.06;;;1.50;nan
34328;BME280;20588;48.840;10.064;2023-02-22T05:31:58;96216.19;;;1.58;nan
34328;BME280;20588;48.840;10.064;2023-02-22T05:34:24;96224.13;;;1.63;nan
34328;BME280;20588;48.840;10.064;2023-02-22T05:36:50;96227.06;;;1.82;nan
34328;BME280;20588;48.840;10.064;2023-02-22T05:39:16;96215.63;;;1.95;nan
34328;BME280;20588;48.840;10.064;2023-02-22T05:41:42;96213.50;;;2.06;nan
34328;BME280;20588;48.840;10.064;2023-02-22T05:44:08;96213.81;;;2.11;nan
34328;BME280;20588;48.840;10.064;2023-02-22T05:46:35;96219.78;;;2.18;nan
34328;BME280;20588;48.840;10.064;2023-02-22T05:49:01;96208.84;;;2.26;nan
34328;BME280;20588;48.840;10.064;2023-02-22T05:51:27;96217.03;;;2.36;nan
34328;BME280;20588;48.840;10.064;2023-02-22T05:53:53;96218.56;;;2.45;nan
34328;BME280;20588;48.840;10.064;2023-02-22T05:56:26;96214.31;;;2.68;nan
34328;BME280;20588;48.840;10.064;2023-02-22T05:58:53;96207.72;;;2.81;nan
34328;BME280;20588;48.840;10.064;2023-02-22T06:01:21;96208.94;;;2.85;nan
34328;BME280;20588;48.840;10.064;2023-02-22T06:03:48;96203.97;;;3.14;nan
34328;BME280;20588;48.840;10.064;2023-02-22T06:06:15;96207.97;;;3.60;nan
34328;BME280;20588;48.840;10.064;2023-02-22T06:08:41;96200.66;;;4.66;nan
34328;BME280;20588;48.840;10.064;2023-02-22T06:11:07;96197.84;;;4.82;nan
34328;BME280;20588;48.840;10.064;2023-02-22T06:13:36;96195.19;;;5.94;nan
34328;BME280;20588;48.840;10.064;2023-02-22T06:16:04;96195.44;;;6.72;nan
34328;BME280;20588;48.840;10.064;2023-02-22T06:18:30;96187.63;;;6.80;nan
34328;BME280;20588;48.840;10.064;2023-02-22T06:20:57;96194.50;;;7.64;nan
34328;BME280;20588;48.840;10.064;2023-02-22T06:23:23;96188.34;;;7.91;nan
34328;BME280;20588;48.840;10.064;2023-02-22T06:25:50;96192.84;;;7.96;nan
34328;BME280;20588;48.840;10.064;2023-02-22T06:28:16;96182.53;;;8.15;nan
34328;BME280;20588;48.840;10.064;2023-02-22T06:30:42;96190.41;;;8.20;nan
34328;BME280;20588;48.840;10.064;2023-02-22T06:33:09;96193.81;;;8.58;nan
34328;BME280;20588;48.840;10.064;2023-02-22T06:35:35;96190.03;;;8.98;nan
34328;BME280;20588;48.840;10.064;2023-02-22T06:38:01;96192.97;;;9.02;nan
34328;BME280;20588;48.840;10.064;2023-02-22T06:40:27;96193.88;;;9.14;nan
34328;BME280;20588;48.840;10.064;2023-02-22T06:42:55;96196.03;;;9.42;nan
34328;BME280;20588;48.840;10.064;2023-02-22T06:45:21;96198.44;;;9.79;nan
34328;BME280;20588;48.840;10.064;2023-02-22T06:47:47;96197.91;;;10.13;nan
34328;BME280;20588;48.840;10.064;2023-02-22T06:50:28;96200.34;;;10.44;nan
34328;BME280;20588;48.840;10.064;2023-02-22T06:52:55;96196.47;;;10.53;nan
34328;BME280;20588;48.840;10.064;2023-02-22T06:55:25;96203.19;;;10.36;nan
34328;BME280;20588;48.840;10.064;2023-02-22T06:57:51;96200.22;;;10.69;nan
34328;BME280;20588;48.840;10.064;2023-02-22T07:00:20;96200.09;;;10.64;nan
34328;BME280;20588;48.840;10.064;2023-02-22T07:02:47;96202.47;;;11.07;nan
34328;BME280;20588;48.840;10.064;2023-02-22T07:05:19;96207.41;;;11.20;nan
34328;BME280;20588;48.840;10.064;2023-02-22T07:07:47;96209.09;;;11.14;nan
34328;BME280;20588;48.840;10.064;2023-02-22T07:10:23;96207.34;;;10.96;nan
34328;BME280;20588;48.840;10.064;2023-02-22T07:12:49;96208.66;;;10.87;nan
34328;BME280;20588;48.840;10.064;2023-02-22T07:15:18;96212.31;;;11.10;nan
34328;BME280;20588;48.840;10.064;2023-02-22T07:17:46;96213.28;;;10.97;nan
34328;BME280;20588;48.840;10.064;2023-02-22T07:20:12;96217.66;;;10.96;nan
34328;BME280;20588;48.840;10.064;2023-02-22T07:22:39;96216.94;;;11.19;nan
34328;BME280;20588;48.840;10.064;2023-02-22T07:25:06;96221.22;;;11.25;nan
34328;BME280;20588;48.840;10.064;2023-02-22T07:27:36;96214.28;;;11.60;nan
34328;BME280;20588;48.840;10.064;2023-02-22T07:30:48;96209.88;;;11.90;nan
34328;BME280;20588;48.840;10.064;2023-02-22T07:32:51;96218.66;;;12.29;nan
34328;BME280;20588;48.840;10.064;2023-02-22T07:35:20;96210.00;;;12.74;nan
34328;BME280;20588;48.840;10.064;2023-02-22T07:50:14;96226.34;;;13.53;nan
34328;BME280;20588;48.840;10.064;2023-02-22T07:52:45;96217.72;;;13.31;nan
34328;BME280;20588;48.840;10.064;2023-02-22T07:55:12;96214.91;;;13.32;nan
34328;BME280;20588;48.840;10.064;2023-02-22T07:57:39;96216.88;;;13.25;nan
34328;BME280;20588;48.840;10.064;2023-02-22T08:00:05;96215.53;;;13.39;nan
34328;BME280;20588;48.840;10.064;2023-02-22T08:02:31;96219.75;;;13.95;nan
34328;BME280;20588;48.840;10.064;2023-02-22T08:04:57;96208.16;;;13.81;nan
34328;BME280;20588;48.840;10.064;2023-02-22T08:07:23;96212.16;;;13.72;nan
34328;BME280;20588;48.840;10.064;2023-02-22T08:09:49;96205.00;;;13.95;nan
34328;BME280;20588;48.840;10.064;2023-02-22T08:12:15;96207.69;;;14.43;nan
34328;BME280;20588;48.840;10.064;2023-02-22T08:14:41;96201.34;;;14.99;nan
34328;BME280;20588;48.840;10.064;2023-02-22T08:17:07;96197.38;;;15.50;nan
34328;BME280;20588;48.840;10.064;2023-02-22T08:19:34;96200.00;;;14.97;nan
34328;BME280;20588;48.840;10.064;2023-02-22T08:22:00;96190.94;;;15.52;nan
34328;BME280;20588;48.840;10.064;2023-02-22T08:24:26;96190.16;;;16.45;nan
34328;BME280;20588;48.840;10.064;2023-02-22T08:26:52;96188.47;;;16.81;nan
34328;BME280;20588;48.840;10.064;2023-02-22T08:29:18;96191.66;;;17.48;nan
34328;BME280;20588;48.840;10.064;2023-02-22T08:31:50;96197.59;;;17.98;nan
34328;BME280;20588;48.840;10.064;2023-02-22T08:34:18;96189.69;;;18.29;nan
34328;BME280;20588;48.840;10.064;2023-02-22T08:36:45;96180.47;;;19.43;nan
34328;BME280;20588;48.840;10.064;2023-02-22T08:39:11;96184.44;;;20.45;nan
34328;BME280;20588;48.840;10.064;2023-02-22T08:41:37;96180.13;;;21.33;nan
34328;BME280;20588;48.840;10.064;2023-02-22T08:44:03;96176.34;;;22.17;nan
34328;BME280;20588;48.840;10.064;2023-02-22T08:46:29;96167.44;;;22.94;nan
34328;BME280;20588;48.840;10.064;2023-02-22T08:48:55;96170.06;;;23.17;nan
34328;BME280;20588;48.840;10.064;2023-02-22T08:51:21;96175.81;;;22.83;nan
34328;BME280;20588;48.840;10.064;2023-02-22T08:53:47;96175.84;;;23.05;nan
34328;BME280;20588;48.840;10.064;2023-02-22T08:56:13;96178.19;;;21.39;nan
34328;BME280;20588;48.840;10.064;2023-02-22T08:58:39;96177.81;;;22.23;nan
34328;BME280;20588;48.840;10.064;2023-02-22T09:01:05;96172.66;;;22.18;nan
34328;BME280;20588;48.840;10.064;2023-02-22T09:03:31;96174.97;;;21.93;nan
34328;BME280;20588;48.840;10.064;2023-02-22T09:05:57;96173.44;;;22.19;nan
34328;BME280;20588;48.840;10.064;2023-02-22T09:08:26;96170.97;;;22.49;nan
34328;BME280;20588;48.840;10.064;2023-02-22T09:10:53;96179.25;;;22.70;nan
34328;BME280;20588;48.840;10.064;2023-02-22T09:13:19;96161.97;;;24.49;nan
34328;BME280;20588;48.840;10.064;2023-02-22T09:15:45;96161.03;;;25.98;nan
34328;BME280;20588;48.840;10.064;2023-02-22T09:18:12;96158.75;;;27.25;nan
34328;BME280;20588;48.840;10.064;2023-02-22T09:20:39;96158.69;;;28.59;nan
34328;BME280;20588;48.840;10.064;2023-02-22T09:23:06;96156.28;;;29.61;nan
34328;BME280;20588;48.840;10.064;2023-02-22T09:25:34;96155.91;;;28.20;nan
34328;BME280;20588;48.840;10.064;2023-02-22T09:28:01;96144.81;;;27.37;nan
34328;BME280;20588;48.840;10.064;2023-02-22T09:30:34;96148.81;;;26.52;nan
34328;BME280;20588;48.840;10.064;2023-02-22T09:33:07;96157.81;;;26.22;nan
34328;BME280;20588;48.840;10.064;2023-02-22T09:35:37;96144.41;;;22.91;nan
34328;BME280;20588;48.840;10.064;2023-02-22T09:38:08;96148.25;;;25.37;nan
34328;BME280;20588;48.840;10.064;2023-02-22T09:40:37;96146.03;;;27.19;nan
34328;BME280;20588;48.840;10.064;2023-02-22T09:43:20;96142.31;;;27.97;nan
34328;BME280;20588;48.840;10.064;2023-02-22T09:46:23;96135.81;;;28.67;nan
34328;BME280;20588;48.840;10.064;2023-02-22T09:52:15;96130.09;;;29.59;nan
34328;BME280;20588;48.840;10.064;2023-02-22T09:54:49;96136.47;;;29.15;nan
34328;BME280;20588;48.840;10.064;2023-02-22T09:57:32;96131.94;;;28.52;nan
34328;BME280;20588;48.840;10.064;2023-02-22T10:00:20;96134.84;;;26.22;nan
34328;BME280;20588;48.840;10.064;2023-02-22T10:05:26;96135.78;;;26.76;nan
34328;BME280;20588;48.840;10.064;2023-02-22T10:08:02;96131.00;;;27.11;nan
34328;BME280;20588;48.840;10.064;2023-02-22T10:10:42;96130.19;;;26.48;nan
34328;BME280;20588;48.840;10.064;2023-02-22T10:19:27;96134.13;;;26.42;nan
34328;BME280;20588;48.840;10.064;2023-02-22T10:22:13;96128.94;;;27.16;nan
34328;BME280;20588;48.840;10.064;2023-02-22T10:27:32;96132.84;;;26.48;nan
34328;BME280;20588;48.840;10.064;2023-02-22T10:30:06;96133.38;;;26.04;nan
34328;BME280;20588;48.840;10.064;2023-02-22T10:32:43;96131.06;;;26.61;nan
34328;BME280;20588;48.840;10.064;2023-02-22T10:35:23;96125.28;;;27.29;nan
34328;BME280;20588;48.840;10.064;2023-02-22T10:37:53;96128.75;;;26.60;nan
34328;BME280;20588;48.840;10.064;2023-02-22T10:40:23;96137.09;;;25.32;nan
34328;BME280;20588;48.840;10.064;2023-02-22T10:42:57;96124.72;;;25.15;nan
34328;BME280;20588;48.840;10.064;2023-02-22T10:45:28;96131.22;;;24.19;nan
34328;BME280;20588;48.840;10.064;2023-02-22T10:48:00;96122.22;;;24.67;nan
34328;BME280;20588;48.840;10.064;2023-02-22T10:50:30;96120.50;;;25.31;nan
34328;BME280;20588;48.840;10.064;2023-02-22T10:52:56;96118.50;;;25.45;nan
34328;BME280;20588;48.840;10.064;2023-02-22T10:55:22;96119.44;;;24.72;nan
34328;BME280;20588;48.840;10.064;2023-02-22T10:57:50;96119.28;;;25.20;nan
34328;BME280;20588;48.840;10.064;2023-02-22T11:00:32;96107.63;;;25.47;nan
34328;BME280;20588;48.840;10.064;2023-02-22T11:03:04;96114.94;;;24.90;nan
34328;BME280;20588;48.840;10.064;2023-02-22T11:05:39;96118.03;;;24.75;nan
34328;BME280;20588;48.840;10.064;2023-02-22T11:10:52;96116.41;;;22.51;nan
34328;BME280;20588;48.840;10.064;2023-02-22T11:15:53;96115.78;;;20.58;nan
34328;BME280;20588;48.840;10.064;2023-02-22T11:18:31;96106.03;;;20.82;nan
34328;BME280;20588;48.840;10.064;2023-02-22T11:21:07;96103.97;;;20.98;nan
34328;BME280;20588;48.840;10.064;2023-02-22T11:23:37;96097.81;;;21.07;nan
34328;BME280;20588;48.840;10.064;2023-02-22T11:26:12;96079.53;;;21.94;nan
34328;BME280;20588;48.840;10.064;2023-02-22T11:28:43;96094.44;;;22.47;nan
34328;BME280;20588;48.840;10.064;2023-02-22T11:31:26;96091.06;;;22.06;nan
34328;BME280;20588;48.840;10.064;2023-02-22T11:33:58;96092.38;;;20.48;nan
34328;BME280;20588;48.840;10.064;2023-02-22T11:36:40;96085.09;;;20.64;nan
34328;BME280;20588;48.840;10.064;2023-02-22T11:39:30;96080.06;;;20.49;nan
34328;BME280;20588;48.840;10.064;2023-02-22T11:42:26;96080.41;;;19.24;nan
34328;BME280;20588;48.840;10.064;2023-02-22T11:45:09;96077.09;;;19.47;nan
34328;BME280;20588;48.840;10.064;2023-02-22T11:47:45;96075.69;;;19.79;nan
34328;BME280;20588;48.840;10.064;2023-02-22T11:50:28;96070.22;;;19.56;nan
34328;BME280;20588;48.840;10.064;2023-02-22T11:53:44;96067.88;;;19.79;nan
34328;BME280;20588;48.840;10.064;2023-02-22T12:01:21;96047.59;;;20.87;nan
34328;BME280;20588;48.840;10.064;2023-02-22T12:14:59;96031.44;;;21.30;nan
34328;BME280;20588;48.840;10.064;2023-02-22T12:25:48;96024.63;;;20.84;nan
34328;BME280;20588;48.840;10.064;2023-02-22T12:28:22;96020.66;;;21.05;nan
34328;BME280;20588;48.840;10.064;2023-02-22T12:31:14;96015.84;;;20.61;nan
34328;BME280;20588;48.840;10.064;2023-02-22T12:34:10;96021.66;;;20.40;nan
34328;BME280;20588;48.840;10.064;2023-02-22T12:36:46;96016.69;;;20.20;nan
34328;BME280;20588;48.840;10.064;2023-02-22T12:39:54;96009.19;;;20.32;nan
34328;BME280;20588;48.840;10.064;2023-02-22T12:45:33;96011.69;;;20.23;nan
34328;BME280;20588;48.840;10.064;2023-02-22T12:50:41;96008.50;;;20.26;nan
34328;BME280;20588;48.840;10.064;2023-02-22T12:55:50;96011.47;;;20.20;nan
34328;BME280;20588;48.840;10.064;2023-02-22T12:58:36;96007.81;;;19.97;nan
34328;BME280;20588;48.840;10.064;2023-02-22T13:01:10;95999.44;;;19.77;nan
34328;BME280;20588;48.840;10.064;2023-02-22T13:03:42;95996.28;;;19.80;nan
34328;BME280;20588;48.840;10.064;2023-02-22T13:17:14;95987.16;;;20.01;nan
34328;BME280;20588;48.840;10.064;2023-02-22T13:22:48;95987.22;;;20.33;nan
34328;BME280;20588;48.840;10.064;2023-02-22T13:25:37;95985.41;;;19.73;nan
34328;BME280;20588;48.840;10.064;2023-02-22T13:28:28;95981.97;;;19.96;nan
34328;BME280;20588;48.840;10.064;2023-02-22T13:34:04;95975.50;;;20.30;nan
34328;BME280;20588;48.840;10.064;2023-02-22T13:36:36;95981.34;;;20.04;nan
34328;BME280;20588;48.840;10.064;2023-02-22T13:45:07;95959.47;;;19.57;nan
34328;BME280;20588;48.840;10.064;2023-02-22T13:48:07;95954.22;;;19.62;nan
34328;BME280;20588;48.840;10.064;2023-02-22T13:53:16;95953.06;;;19.50;nan
34328;BME280;20588;48.840;10.064;2023-02-22T13:55:50;95958.22;;;19.31;nan
34328;BME280;20588;48.840;10.064;2023-02-22T13:58:17;95959.31;;;19.25;nan
34328;BME280;20588;48.840;10.064;2023-02-22T14:00:55;95957.66;;;19.11;nan
34328;BME280;20588;48.840;10.064;2023-02-22T14:05:55;95957.38;;;18.55;nan
34328;BME280;20588;48.840;10.064;2023-02-22T14:10:57;95962.22;;;18.38;nan
34328;BME280;20588;48.840;10.064;2023-02-22T14:13:28;95959.84;;;17.98;nan
34328;BME280;20588;48.840;10.064;2023-02-22T14:18:40;95962.25;;;17.89;nan
34328;BME280;20588;48.840;10.064;2023-02-22T14:21:14;95954.97;;;17.86;nan
34328;BME280;20588;48.840;10.064;2023-02-22T14:23:52;95954.06;;;18.06;nan
34328;BME280;20588;48.840;10.064;2023-02-22T14:26:33;95963.50;;;17.92;nan
34328;BME280;20588;48.840;10.064;2023-02-22T14:37:01;95965.91;;;17.83;nan
34328;BME280;20588;48.840;10.064;2023-02-22T14:42:27;95957.72;;;17.61;nan
34328;BME280;20588;48.840;10.064;2023-02-22T14:45:12;95959.56;;;17.41;nan
34328;BME280;20588;48.840;10.064;2023-02-22T14:50:56;95964.56;;;17.27;nan
34328;BME280;20588;48.840;10.064;2023-02-22T14:53:25;95962.97;;;17.31;nan
34328;BME280;20588;48.840;10.064;2023-02-22T14:55:57;95965.84;;;17.30;nan
34328;BME280;20588;48.840;10.064;2023-02-22T14:58:48;95965.84;;;17.30;nan
34328;BME280;20588;48.840;10.064;2023-02-22T15:03:49;95959.34;;;17.32;nan
34328;BME280;20588;48.840;10.064;2023-02-22T15:06:22;95962.72;;;17.33;nan
34328;BME280;20588;48.840;10.064;2023-02-22T15:09:14;95962.75;;;17.28;nan
34328;BME280;20588;48.840;10.064;2023-02-22T15:12:31;95963.81;;;17.17;nan
34328;BME280;20588;48.840;10.064;2023-02-22T15:14:39;95965.91;;;17.10;nan
34328;BME280;20588;48.840;10.064;2023-02-22T15:19:39;95970.63;;;16.98;nan
34328;BME280;20588;48.840;10.064;2023-02-22T15:22:21;95963.88;;;16.92;nan
34328;BME280;20588;48.840;10.064;2023-02-22T15:24:58;95968.06;;;16.78;nan
34328;BME280;20588;48.840;10.064;2023-02-22T15:27:26;95968.06;;;16.63;nan
34328;BME280;20588;48.840;10.064;2023-02-22T15:29:58;95984.94;;;16.60;nan
34328;BME280;20588;48.840;10.064;2023-02-22T15:32:36;95978.97;;;16.50;nan
34328;BME280;20588;48.840;10.064;2023-02-22T15:38:27;95974.28;;;16.27;nan
34328;BME280;20588;48.840;10.064;2023-02-22T15:41:01;95989.84;;;16.27;nan
34328;BME280;20588;48.840;10.064;2023-02-22T15:43:28;95986.19;;;16.22;nan
34328;BME280;20588;48.840;10.064;2023-02-22T15:45:55;95981.50;;;16.04;nan
34328;BME280;20588;48.840;10.064;2023-02-22T15:48:22;95989.28;;;15.94;nan
34328;BME280;20588;48.840;10.064;2023-02-22T15:51:09;95985.34;;;15.82;nan
34328;BME280;20588;48.840;10.064;2023-02-22T15:53:59;95985.28;;;15.67;nan
34328;BME280;20588;48.840;10.064;2023-02-22T15:56:28;95996.16;;;15.54;nan
34328;BME280;20588;48.840;10.064;2023-02-22T15:59:13;95997.91;;;15.43;nan
34328;BME280;20588;48.840;10.064;2023-02-22T16:01:45;96001.50;;;15.37;nan
34328;BME280;20588;48.840;10.064;2023-02-22T16:04:20;96002.97;;;15.28;nan
34328;BME280;20588;48.840;10.064;2023-02-22T16:06:47;96007.06;;;15.19;nan
34328;BME280;20588;48.840;10.064;2023-02-22T16:09:23;96010.97;;;15.17;nan
34328;BME280;20588;48.840;10.064;2023-02-22T16:12:21;96011.13;;;15.00;nan